createdAt,value
2022-12-11T00:00:47.239Z,94.33
2022-12-11T00:03:16.122Z,94.19
2022-12-11T00:05:43.210Z,94.18
2022-12-11T00:08:10.713Z,94.54
2022-12-11T00:10:38.050Z,94.48
2022-12-11T00:13:05.380Z,94.63
2022-12-11T00:15:38.187Z,94.30
2022-12-11T00:18:04.604Z,94.30
2022-12-11T00:20:31.077Z,94.26
2022-12-11T00:22:57.702Z,94.23
2022-12-11T00:25:24.274Z,94.45
2022-12-11T00:27:58.104Z,94.23
2022-12-11T00:30:24.660Z,94.23
2022-12-11T00:32:54.143Z,93.91
2022-12-11T00:35:20.500Z,93.99
2022-12-11T00:37:46.936Z,93.99
2022-12-11T00:40:13.281Z,94.01
2022-12-11T00:42:39.617Z,94.21
2022-12-11T00:45:06.443Z,94.04
2022-12-11T00:47:32.788Z,94.22
2022-12-11T00:49:59.234Z,93.89
2022-12-11T00:52:26.114Z,93.78
2022-12-11T00:54:52.513Z,93.60
2022-12-11T00:57:18.912Z,93.47
2022-12-11T00:59:45.298Z,93.31
2022-12-11T01:02:11.692Z,93.42
2022-12-11T01:04:38.516Z,93.16
2022-12-11T01:07:04.899Z,93.37
2022-12-11T01:09:49.696Z,93.18
2022-12-11T01:12:17.510Z,93.36
2022-12-11T01:14:43.946Z,93.05
2022-12-11T01:17:10.410Z,93.00
2022-12-11T01:19:38.371Z,93.42
2022-12-11T01:22:25.044Z,93.53
2022-12-11T01:24:51.400Z,93.44
2022-12-11T01:27:17.824Z,93.60
2022-12-11T01:29:46.589Z,93.58
2022-12-11T01:32:13.012Z,93.37
2022-12-11T01:34:39.567Z,93.43
2022-12-11T01:37:06.021Z,93.55
2022-12-11T01:39:34.793Z,93.30
2022-12-11T01:42:04.113Z,93.22
2022-12-11T01:44:30.520Z,93.12
2022-12-11T01:46:57.069Z,93.46
2022-12-11T01:49:27.451Z,93.34
2022-12-11T01:52:02.910Z,93.29
2022-12-11T01:54:30.021Z,93.49
2022-12-11T01:57:00.901Z,93.25
2022-12-11T01:59:31.056Z,93.25
2022-12-11T02:02:04.566Z,93.22
2022-12-11T02:04:32.979Z,93.25
2022-12-11T02:07:03.425Z,93.30
2022-12-11T02:09:33.151Z,92.75
2022-12-11T02:12:03.052Z,93.16
2022-12-11T02:15:00.458Z,93.53
2022-12-11T02:17:44.174Z,92.98
2022-12-11T02:20:16.792Z,93.08
2022-12-11T02:23:21.001Z,92.84
2022-12-11T02:26:01.403Z,92.99
2022-12-11T02:28:55.736Z,92.85
2022-12-11T02:31:39.054Z,93.17
2022-12-11T02:34:10.328Z,93.13
2022-12-11T02:36:43.999Z,93.02
2022-12-11T02:39:13.419Z,92.82
2022-12-11T02:41:48.674Z,92.98
2022-12-11T02:44:20.270Z,93.10
2022-12-11T02:46:47.100Z,92.81
2022-12-11T02:49:17.592Z,92.90
2022-12-11T02:51:47.302Z,92.66
2022-12-11T02:54:20.818Z,92.50
2022-12-11T02:56:55.742Z,92.55
2022-12-11T02:59:29.861Z,92.07
2022-12-11T03:01:56.320Z,92.15
2022-12-11T03:04:25.664Z,92.11
2022-12-11T03:06:56.337Z,92.07
2022-12-11T03:09:39.797Z,91.73
2022-12-11T03:12:09.745Z,91.57
2022-12-11T03:14:38.985Z,91.44
2022-12-11T03:17:15.635Z,91.20
2022-12-11T03:19:58.068Z,91.12
2022-12-11T03:22:52.431Z,91.11
2022-12-11T03:25:23.315Z,91.27
2022-12-11T03:28:03.137Z,91.05
2022-12-11T03:30:34.734Z,91.23
2022-12-11T03:33:08.523Z,91.03
2022-12-11T03:35:40.435Z,91.03
2022-12-11T03:38:13.831Z,91.12
2022-12-11T03:40:42.577Z,90.89
2022-12-11T03:43:11.145Z,90.86
2022-12-11T03:45:40.087Z,91.02
2022-12-11T03:48:12.847Z,90.85
2022-12-11T03:50:40.644Z,90.94
2022-12-11T03:53:07.976Z,90.81
2022-12-11T03:55:37.619Z,90.58
2022-12-11T03:58:05.072Z,90.59
2022-12-11T04:00:31.711Z,90.48
2022-12-11T04:03:27.166Z,90.48
2022-12-11T04:05:55.638Z,90.55
2022-12-11T04:08:23.244Z,90.61
2022-12-11T04:11:14.177Z,90.35
2022-12-11T04:13:41.626Z,90.58
2022-12-11T04:16:12.585Z,90.25
2022-12-11T04:18:57.491Z,90.13
2022-12-11T04:21:42.608Z,90.10
2022-12-11T04:24:15.365Z,89.92
2022-12-11T04:26:42.727Z,89.87
2022-12-11T04:29:12.372Z,90.30
2022-12-11T04:31:40.996Z,89.99
2022-12-11T04:34:08.491Z,90.02
2022-12-11T04:36:34.961Z,90.33
2022-12-11T04:39:01.488Z,90.30
2022-12-11T04:41:28.043Z,90.39
2022-12-11T04:43:57.680Z,90.22
2022-12-11T04:46:24.894Z,90.53
2022-12-11T04:48:57.418Z,90.12
2022-12-11T04:51:24.931Z,90.37
2022-12-11T04:53:52.828Z,90.20
2022-12-11T04:56:19.784Z,90.04
2022-12-11T04:58:47.003Z,90.14
2022-12-11T05:01:19.627Z,89.76
2022-12-11T05:03:46.939Z,89.48
2022-12-11T05:06:14.385Z,89.38
2022-12-11T05:08:43.975Z,89.40
2022-12-11T05:11:12.940Z,89.13
2022-12-11T05:13:41.154Z,89.13
2022-12-11T05:16:09.622Z,88.96
2022-12-11T05:18:36.083Z,88.75
2022-12-11T05:21:05.658Z,88.84
2022-12-11T05:23:32.694Z,89.15
2022-12-11T05:26:01.866Z,89.06
2022-12-11T05:28:30.620Z,89.09
2022-12-11T05:31:01.759Z,89.13
2022-12-11T05:33:28.691Z,89.15
2022-12-11T05:35:55.578Z,88.96
2022-12-11T05:38:22.739Z,88.94
2022-12-11T05:41:20.209Z,89.07
2022-12-11T05:43:46.678Z,89.06
2022-12-11T05:46:16.728Z,88.90
2022-12-11T05:48:44.914Z,88.87
2022-12-11T05:51:12.542Z,89.00
2022-12-11T05:53:40.494Z,89.08
2022-12-11T05:56:11.234Z,89.29
2022-12-11T05:58:38.130Z,89.24
2022-12-11T06:01:17.234Z,89.05
2022-12-11T06:03:45.321Z,89.45
2022-12-11T06:06:12.192Z,89.33
2022-12-11T06:08:38.643Z,89.47
2022-12-11T06:11:06.823Z,89.28
2022-12-11T06:13:33.950Z,89.30
2022-12-11T06:16:05.466Z,89.38
2022-12-11T06:18:35.049Z,89.22
2022-12-11T06:21:01.422Z,88.92
2022-12-11T06:23:27.840Z,89.43
2022-12-11T06:25:55.459Z,89.18
2022-12-11T06:28:21.820Z,89.47
2022-12-11T06:30:48.161Z,89.15
2022-12-11T06:33:14.590Z,89.16
2022-12-11T06:35:42.489Z,89.31
2022-12-11T06:38:10.828Z,89.37
2022-12-11T06:40:37.468Z,89.56
2022-12-11T06:43:03.945Z,89.54
2022-12-11T06:45:30.853Z,89.25
2022-12-11T06:47:58.385Z,89.70
2022-12-11T06:50:24.805Z,89.51
2022-12-11T06:52:51.200Z,89.18
2022-12-11T06:55:17.834Z,89.12
2022-12-11T06:57:44.332Z,89.14
2022-12-11T07:00:11.402Z,89.25
2022-12-11T07:02:37.856Z,89.21
2022-12-11T07:05:05.037Z,89.27
2022-12-11T07:07:31.438Z,89.05
2022-12-11T07:10:04.065Z,89.23
2022-12-11T07:12:34.821Z,88.99
2022-12-11T07:15:01.175Z,89.15
2022-12-11T07:17:29.280Z,88.96
2022-12-11T07:19:55.999Z,88.93
2022-12-11T07:22:22.485Z,89.07
2022-12-11T07:24:48.941Z,89.01
2022-12-11T07:27:15.344Z,88.80
2022-12-11T07:29:41.759Z,88.76
2022-12-11T07:32:08.375Z,88.78
2022-12-11T07:34:34.851Z,88.62
2022-12-11T07:37:02.482Z,88.75
2022-12-11T07:39:28.981Z,88.68
2022-12-11T07:41:56.744Z,88.55
2022-12-11T07:44:23.332Z,89.06
2022-12-11T07:46:49.849Z,88.78
2022-12-11T07:49:16.270Z,88.72
2022-12-11T07:51:43.144Z,88.87
2022-12-11T07:54:16.571Z,88.71
2022-12-11T07:56:46.462Z,88.26
2022-12-11T07:59:16.565Z,88.23
2022-12-11T08:01:45.364Z,88.23
2022-12-11T08:04:15.546Z,88.44
2022-12-11T08:06:42.512Z,88.11
2022-12-11T08:09:14.680Z,87.71
2022-12-11T08:11:45.475Z,87.69
2022-12-11T08:14:11.927Z,87.76
2022-12-11T08:16:40.665Z,87.95
2022-12-11T08:19:07.148Z,87.86
2022-12-11T08:21:33.541Z,87.78
2022-12-11T08:24:01.087Z,87.96
2022-12-11T08:26:30.060Z,87.85
2022-12-11T08:28:57.019Z,87.69
2022-12-11T08:31:24.076Z,87.38
2022-12-11T08:33:50.758Z,87.53
2022-12-11T08:36:20.462Z,87.66
2022-12-11T08:38:56.881Z,87.27
2022-12-11T08:41:29.660Z,86.78
2022-12-11T08:44:31.942Z,86.93
2022-12-11T08:46:58.427Z,87.04
2022-12-11T08:49:27.520Z,87.02
2022-12-11T08:51:56.354Z,86.95
2022-12-11T08:54:22.836Z,86.92
2022-12-11T08:56:52.339Z,86.89
2022-12-11T08:59:23.414Z,87.37
2022-12-11T09:01:51.208Z,87.18
2022-12-11T09:04:18.872Z,87.52
2022-12-11T09:06:45.190Z,87.38
2022-12-11T09:09:14.915Z,87.02
2022-12-11T09:11:41.666Z,87.25
2022-12-11T09:14:16.181Z,87.15
2022-12-11T09:17:16.734Z,86.69
2022-12-11T09:20:32.039Z,86.41
2022-12-11T09:23:22.490Z,86.31
2022-12-11T09:25:48.908Z,86.22
2022-12-11T09:28:18.892Z,85.99
2022-12-11T09:30:45.474Z,86.02
2022-12-11T09:33:12.197Z,86.13
2022-12-11T09:35:41.035Z,85.93
2022-12-11T09:38:15.375Z,86.35
2022-12-11T09:40:43.308Z,85.83
2022-12-11T09:43:27.846Z,85.42
2022-12-11T09:45:56.160Z,85.51
2022-12-11T09:48:25.284Z,85.08
2022-12-11T09:50:55.049Z,85.16
2022-12-11T09:53:33.953Z,85.29
2022-12-11T09:56:37.408Z,85.40
2022-12-11T09:59:31.954Z,84.80
2022-12-11T10:02:01.513Z,84.85
2022-12-11T10:04:49.848Z,84.90
2022-12-11T10:07:22.979Z,84.74
2022-12-11T10:09:56.616Z,84.67
2022-12-11T10:12:47.939Z,85.28
2022-12-11T10:15:25.679Z,85.10
2022-12-11T10:17:57.554Z,85.22
2022-12-11T10:20:36.450Z,85.19
2022-12-11T10:23:06.253Z,85.24
2022-12-11T10:25:37.362Z,85.44
2022-12-11T10:28:14.968Z,85.40
2022-12-11T10:31:07.744Z,85.74
2022-12-11T10:33:39.577Z,85.29
2022-12-11T10:36:08.266Z,85.33
2022-12-11T10:38:40.441Z,84.95
2022-12-11T10:41:18.921Z,85.31
2022-12-11T10:43:51.503Z,85.06
2022-12-11T10:46:28.649Z,85.29
2022-12-11T10:48:57.384Z,85.34
2022-12-11T10:51:35.653Z,85.59
2022-12-11T10:54:29.552Z,85.63
2022-12-11T10:56:56.992Z,85.85
2022-12-11T10:59:37.037Z,85.66
2022-12-11T11:02:05.663Z,85.48
2022-12-11T11:04:36.714Z,85.48
2022-12-11T11:07:19.150Z,85.83
2022-12-11T11:09:46.247Z,85.67
2022-12-11T11:12:27.558Z,86.07
2022-12-11T11:15:08.088Z,85.77
2022-12-11T11:17:52.760Z,85.71
2022-12-11T11:20:25.333Z,86.10
2022-12-11T11:22:55.273Z,86.40
2022-12-11T11:25:24.552Z,86.06
2022-12-11T11:27:57.661Z,86.30
2022-12-11T11:30:38.343Z,86.15
2022-12-11T11:33:20.104Z,85.96
2022-12-11T11:36:00.276Z,86.13
2022-12-11T11:38:40.920Z,86.36
2022-12-11T11:41:31.645Z,86.41
2022-12-11T11:44:08.014Z,86.45
2022-12-11T11:46:47.778Z,86.42
2022-12-11T11:50:01.646Z,86.25
2022-12-11T11:52:34.664Z,86.24
2022-12-11T11:55:11.644Z,86.27
2022-12-11T11:58:04.089Z,86.59
2022-12-11T12:00:33.965Z,86.67
2022-12-11T12:03:03.833Z,86.75
2022-12-11T12:05:42.620Z,86.72
2022-12-11T12:08:30.000Z,86.79
2022-12-11T12:11:12.241Z,86.31
2022-12-11T12:13:50.447Z,86.66
2022-12-11T12:19:43.647Z,86.88
2022-12-11T12:22:19.828Z,86.76
2022-12-11T12:24:57.002Z,87.21
2022-12-11T12:27:52.605Z,86.71
2022-12-11T12:30:23.015Z,86.57
2022-12-11T12:33:13.014Z,87.08
2022-12-11T12:35:55.060Z,86.77
2022-12-11T12:38:41.588Z,86.84
2022-12-11T12:41:26.288Z,87.18
2022-12-11T12:44:00.512Z,87.13
2022-12-11T12:47:01.783Z,87.17
2022-12-11T12:49:49.065Z,86.92
2022-12-11T12:52:17.721Z,86.92
2022-12-11T12:55:07.223Z,86.81
2022-12-11T12:57:34.806Z,86.30
2022-12-11T13:00:01.699Z,85.94
2022-12-11T13:02:29.283Z,86.29
2022-12-11T13:05:03.747Z,86.29
2022-12-11T13:07:35.175Z,86.21
2022-12-11T13:10:48.089Z,85.90
2022-12-11T13:13:41.688Z,86.19
2022-12-11T13:16:23.642Z,85.91
2022-12-11T13:18:56.958Z,85.71
2022-12-11T13:21:45.298Z,85.80
2022-12-11T13:24:20.794Z,85.55
2022-12-11T13:26:50.084Z,85.22
2022-12-11T13:29:36.654Z,85.15
2022-12-11T13:35:18.535Z,84.79
2022-12-11T13:37:48.954Z,84.79
2022-12-11T13:40:15.432Z,84.99
2022-12-11T13:42:56.724Z,84.86
2022-12-11T13:45:29.003Z,85.15
2022-12-11T13:48:53.871Z,85.04
2022-12-11T13:51:29.013Z,85.10
2022-12-11T13:54:16.767Z,84.91
2022-12-11T13:57:04.423Z,84.73
2022-12-11T13:59:38.295Z,84.86
2022-12-11T14:02:51.781Z,84.79
2022-12-11T14:05:24.529Z,84.62
2022-12-11T14:08:14.850Z,84.60
2022-12-11T14:10:41.429Z,84.63
2022-12-11T14:13:28.121Z,84.59
2022-12-11T14:16:13.588Z,84.73
2022-12-11T14:18:41.403Z,84.71
2022-12-11T14:21:21.778Z,84.83
2022-12-11T14:24:00.618Z,84.75
2022-12-11T14:26:38.696Z,84.91
2022-12-11T14:29:09.175Z,84.82
2022-12-11T14:31:44.728Z,84.83
2022-12-11T14:34:23.085Z,84.90
2022-12-11T14:37:10.160Z,84.95
2022-12-11T14:40:03.921Z,85.08
2022-12-11T14:42:41.402Z,85.26
2022-12-11T14:45:30.530Z,85.17
2022-12-11T14:48:01.006Z,85.01
2022-12-11T14:51:02.392Z,84.94
2022-12-11T14:53:51.794Z,85.30
2022-12-11T14:56:36.605Z,84.94
2022-12-11T14:59:09.476Z,85.10
2022-12-11T15:02:25.707Z,85.09
2022-12-11T15:05:20.539Z,85.48
2022-12-11T15:08:00.415Z,85.46
2022-12-11T15:11:15.028Z,85.63
2022-12-11T15:14:03.122Z,85.70
2022-12-11T15:16:35.739Z,85.90
2022-12-11T15:19:06.623Z,85.91
2022-12-11T15:21:43.258Z,85.87
2022-12-11T15:24:28.753Z,85.95
2022-12-11T15:27:11.631Z,86.03
2022-12-11T15:29:41.524Z,86.54
2022-12-11T15:36:00.084Z,86.39
2022-12-11T15:38:42.624Z,86.31
2022-12-11T15:41:14.196Z,86.59
2022-12-11T15:43:40.816Z,86.23
2022-12-11T15:46:22.881Z,86.08
2022-12-11T15:48:50.312Z,86.09
2022-12-11T15:51:18.473Z,86.09
2022-12-11T15:53:47.776Z,86.09
2022-12-11T15:56:18.024Z,86.34
2022-12-11T15:59:36.376Z,86.02
2022-12-11T16:02:18.943Z,85.96
2022-12-11T16:04:53.448Z,85.96
2022-12-11T16:07:25.528Z,86.08
2022-12-11T16:09:56.138Z,85.55
2022-12-11T16:12:40.789Z,85.48
2022-12-11T16:15:08.400Z,85.69
2022-12-11T16:17:34.938Z,85.55
2022-12-11T16:20:01.470Z,85.37
2022-12-11T16:22:27.921Z,85.43
2022-12-11T16:24:55.288Z,85.27
2022-12-11T16:27:23.355Z,85.46
2022-12-11T16:29:53.479Z,85.32
2022-12-11T16:32:25.900Z,85.36
2022-12-11T16:35:02.428Z,85.46
2022-12-11T16:37:35.718Z,85.71
2022-12-11T16:40:02.448Z,85.60
2022-12-11T16:42:28.909Z,85.63
2022-12-11T16:45:08.288Z,85.68
2022-12-11T16:47:36.484Z,85.76
2022-12-11T16:50:03.323Z,85.56
2022-12-11T16:52:33.687Z,85.70
2022-12-11T16:55:00.305Z,85.56
2022-12-11T16:57:34.928Z,85.53
2022-12-11T17:00:01.875Z,84.98
2022-12-11T17:02:28.319Z,84.94
2022-12-11T17:04:54.697Z,84.32
2022-12-11T17:07:21.731Z,83.84
2022-12-11T17:09:57.083Z,83.85
2022-12-11T17:12:27.656Z,83.33
2022-12-11T17:14:54.890Z,83.26
2022-12-11T17:17:21.425Z,83.19
2022-12-11T17:19:48.018Z,82.81
2022-12-11T17:22:15.340Z,83.00
2022-12-11T17:24:41.763Z,82.98
2022-12-11T17:27:08.754Z,82.95
2022-12-11T17:32:25.401Z,82.96
2022-12-11T17:34:51.946Z,82.90
2022-12-11T17:37:18.730Z,82.55
2022-12-11T17:39:46.540Z,82.40
2022-12-11T17:45:13.211Z,82.21
2022-12-11T17:47:42.402Z,82.33
2022-12-11T17:50:19.377Z,81.83
2022-12-11T17:52:46.271Z,81.30
2022-12-11T17:55:29.057Z,81.35
2022-12-11T17:57:55.467Z,81.14
2022-12-11T18:00:28.695Z,80.98
2022-12-11T18:02:59.027Z,81.05
2022-12-11T18:05:29.435Z,80.99
2022-12-11T18:08:17.125Z,80.95
2022-12-11T18:10:45.668Z,81.12
2022-12-11T18:13:12.887Z,80.97
2022-12-11T18:15:48.433Z,81.17
2022-12-11T18:18:15.975Z,81.23
2022-12-11T18:20:49.816Z,80.94
2022-12-11T18:23:16.926Z,81.00
2022-12-11T18:25:46.955Z,81.07
2022-12-11T18:28:21.893Z,81.18
2022-12-11T18:30:57.865Z,81.13
2022-12-11T18:33:33.430Z,81.27
2022-12-11T18:35:59.817Z,81.20
2022-12-11T18:38:49.524Z,80.90
2022-12-11T18:41:24.321Z,80.16
2022-12-11T18:43:56.400Z,80.68
2022-12-11T18:46:23.186Z,80.59
2022-12-11T18:48:57.389Z,80.50
2022-12-11T18:51:24.786Z,81.05
2022-12-11T18:53:53.155Z,80.81
2022-12-11T18:56:32.021Z,80.63
2022-12-11T18:59:05.852Z,80.57
2022-12-11T19:01:34.611Z,80.56
2022-12-11T19:04:04.563Z,80.88
2022-12-11T19:06:36.571Z,80.38
2022-12-11T19:09:05.294Z,80.61
2022-12-11T19:11:32.981Z,80.49
2022-12-11T19:13:59.593Z,80.24
2022-12-11T19:16:47.322Z,80.11
2022-12-11T19:19:22.859Z,80.05
2022-12-11T19:21:50.354Z,79.66
2022-12-11T19:24:21.849Z,79.82
2022-12-11T19:27:00.678Z,79.81
2022-12-11T19:29:42.930Z,79.35
2022-12-11T19:32:28.101Z,79.25
2022-12-11T19:34:58.676Z,79.30
2022-12-11T19:37:25.137Z,79.53
2022-12-11T19:42:52.894Z,79.71
2022-12-11T19:45:32.471Z,79.35
2022-12-11T19:47:58.897Z,79.34
2022-12-11T19:50:25.352Z,79.29
2022-12-11T19:52:51.831Z,79.14
2022-12-11T19:55:21.696Z,79.18
2022-12-11T19:57:50.010Z,78.75
2022-12-11T20:00:28.448Z,78.61
2022-12-11T20:02:55.081Z,78.68
2022-12-11T20:05:31.147Z,78.66
2022-12-11T20:08:14.307Z,78.79
2022-12-11T20:10:44.778Z,78.96
2022-12-11T20:13:13.242Z,79.06
2022-12-11T20:15:45.464Z,78.92
2022-12-11T20:18:18.254Z,79.22
2022-12-11T20:20:51.962Z,79.25
2022-12-11T20:23:18.475Z,79.08
2022-12-11T20:25:46.260Z,79.26
2022-12-11T20:28:12.816Z,79.11
2022-12-11T20:30:39.299Z,79.09
2022-12-11T20:33:05.771Z,79.06
2022-12-11T20:36:05.840Z,78.92
2022-12-11T20:38:39.448Z,78.68
2022-12-11T20:41:09.244Z,79.00
2022-12-11T20:44:00.957Z,79.21
2022-12-11T20:46:32.188Z,79.13
2022-12-11T20:48:58.846Z,78.97
2022-12-11T20:51:26.701Z,79.21
2022-12-11T20:54:02.560Z,78.98
2022-12-11T20:56:35.271Z,79.24
2022-12-11T20:59:04.057Z,78.92
2022-12-11T21:01:36.005Z,79.00
2022-12-11T21:04:11.824Z,78.86
2022-12-11T21:06:40.446Z,78.97
2022-12-11T21:11:58.154Z,78.86
2022-12-11T21:14:24.789Z,78.73
2022-12-11T21:16:57.842Z,78.54
2022-12-11T21:19:32.467Z,78.75
2022-12-11T21:22:06.044Z,78.89
2022-12-11T21:24:33.146Z,78.48
2022-12-11T21:27:00.025Z,78.71
2022-12-11T21:29:29.252Z,78.65
2022-12-11T21:31:57.138Z,78.41
2022-12-11T21:34:25.591Z,78.50
2022-12-11T21:36:56.791Z,78.33
2022-12-11T21:39:24.711Z,78.62
2022-12-11T21:41:51.247Z,78.84
2022-12-11T21:47:04.832Z,78.57
2022-12-11T21:49:31.293Z,78.52
2022-12-11T21:51:58.031Z,78.40
2022-12-11T21:54:35.315Z,78.16
2022-12-11T21:57:01.818Z,78.32
2022-12-11T21:59:28.595Z,78.51
2022-12-11T22:01:55.425Z,78.43
2022-12-11T22:04:21.996Z,78.59
2022-12-11T22:06:50.512Z,78.32
2022-12-11T22:09:18.389Z,78.44
2022-12-11T22:11:47.678Z,78.34
2022-12-11T22:15:06.865Z,78.69
2022-12-11T22:17:37.522Z,78.36
2022-12-11T22:20:05.949Z,78.38
2022-12-11T22:22:33.071Z,78.12
2022-12-11T22:25:00.303Z,78.47
2022-12-11T22:27:30.063Z,78.37
2022-12-11T22:29:56.475Z,78.38
2022-12-11T22:32:24.255Z,78.29
2022-12-11T22:34:56.280Z,78.14
2022-12-11T22:37:22.853Z,77.87
2022-12-11T22:39:49.621Z,78.01
2022-12-11T22:42:16.158Z,77.71
2022-12-11T22:44:42.539Z,77.97
2022-12-11T22:47:10.267Z,78.23
2022-12-11T22:49:36.632Z,78.25
2022-12-11T22:52:05.886Z,78.27
2022-12-11T22:54:32.483Z,78.50
2022-12-11T22:56:58.905Z,78.79
2022-12-11T22:59:25.247Z,78.37
2022-12-11T23:01:52.138Z,78.47
2022-12-11T23:04:18.536Z,78.87
2022-12-11T23:06:44.982Z,78.83
2022-12-11T23:09:12.028Z,78.89
2022-12-11T23:11:39.993Z,78.99
2022-12-11T23:14:10.975Z,79.22
2022-12-11T23:16:38.022Z,79.36
2022-12-11T23:19:04.600Z,79.67
2022-12-11T23:21:31.248Z,79.47
2022-12-11T23:24:00.548Z,79.73
2022-12-11T23:26:28.639Z,79.55
2022-12-11T23:28:59.565Z,79.76
2022-12-11T23:31:28.279Z,80.19
2022-12-11T23:33:56.259Z,79.63
2022-12-11T23:36:25.221Z,79.79
2022-12-11T23:38:54.844Z,80.26
2022-12-11T23:41:22.104Z,80.18
2022-12-11T23:43:50.851Z,80.34
2022-12-11T23:46:21.061Z,80.70
2022-12-11T23:48:48.226Z,80.69
2022-12-11T23:51:16.737Z,80.60
2022-12-11T23:53:43.388Z,80.77
2022-12-11T23:56:13.051Z,80.98
2022-12-11T23:58:40.634Z,81.35
